Time;durP1;ratioP1;P1;durP2;ratioP2;P2;SDS_P1;SDS_P2;PMS_P1;PMS_P2;Temp;Humidity;BMP_temperature;BMP_pressure;BME280_temperature;BME280_humidity;BME280_pressure;Samples;Min_cycle;Max_cycle;Signal;HPM_P1;HPM_P2
2022/08/03 00:01:20;;;;;;;8.50;1.90;;;21.70;99.90;;;;;;5036942;28;20136;-68
2022/08/03 00:03:46;;;;;;;7.28;2.00;;;21.70;99.90;;;;;;5038219;28;20083;-68
2022/08/03 00:06:12;;;;;;;8.77;2.05;;;21.70;99.90;;;;;;5037898;28;20071;-68
2022/08/03 00:08:37;;;;;;;4.43;1.45;;;21.60;99.90;;;;;;5037571;28;20049;-69
2022/08/03 00:11:05;;;;;;;9.35;1.77;;;21.60;99.90;;;;;;5036518;28;20041;-68
2022/08/03 00:13:31;;;;;;;6.32;1.55;;;21.60;99.90;;;;;;5036682;28;20404;-68
2022/08/03 00:15:57;;;;;;;7.93;1.90;;;21.60;99.90;;;;;;5037456;28;20441;-68
2022/08/03 00:18:23;;;;;;;7.13;2.03;;;21.60;99.90;;;;;;5036388;28;20038;-68
2022/08/03 00:20:49;;;;;;;7.25;1.73;;;21.60;99.90;;;;;;5037308;28;20501;-68
2022/08/03 00:23:14;;;;;;;9.07;2.10;;;21.70;99.90;;;;;;5037178;28;20075;-68
2022/08/03 00:25:40;;;;;;;8.60;1.90;;;21.70;99.90;;;;;;5037412;28;20377;-68
2022/08/03 00:28:06;;;;;;;5.68;1.65;;;21.70;99.90;;;;;;5037522;28;20049;-68
2022/08/03 00:30:32;;;;;;;5.45;1.40;;;21.60;99.90;;;;;;5036807;28;20065;-68
2022/08/03 00:32:58;;;;;;;5.03;1.75;;;21.60;99.90;;;;;;5037063;28;20077;-68
2022/08/03 00:35:25;;;;;;;8.55;1.80;;;21.50;99.90;;;;;;5037151;28;20037;-68
2022/08/03 00:37:50;;;;;;;9.45;2.25;;;21.40;99.90;;;;;;5037215;28;20041;-69
2022/08/03 00:40:18;;;;;;;8.30;2.03;;;21.40;99.90;;;;;;5037112;28;20334;-69
2022/08/03 00:42:54;;;;;;;7.68;1.95;;;21.40;99.90;;;;;;5037035;28;20120;-69
2022/08/03 00:45:20;;;;;;;;;;;21.40;99.90;;;;;;5037300;28;20324;-69
2022/08/03 00:47:46;;;;;;;6.38;1.70;;;21.30;99.90;;;;;;5037036;28;19917;-68
2022/08/03 00:50:12;;;;;;;8.35;2.00;;;21.20;99.90;;;;;;5035867;28;20128;-68
2022/08/03 00:52:38;;;;;;;6.22;2.20;;;21.20;99.90;;;;;;5036694;28;20433;-68
2022/08/03 00:55:04;;;;;;;10.07;2.10;;;21.20;99.90;;;;;;5037015;28;20175;-68
2022/08/03 00:57:32;;;;;;;9.75;2.55;;;21.20;99.90;;;;;;5036512;28;20037;-68
2022/08/03 00:59:58;;;;;;;8.93;1.98;;;21.20;99.90;;;;;;5036394;28;20415;-69
2022/08/03 01:02:28;;;;;;;9.48;2.28;;;21.20;99.90;;;;;;5036430;28;20162;-68
2022/08/03 01:04:55;;;;;;;6.05;2.40;;;21.30;99.90;;;;;;5036699;28;20044;-69
2022/08/03 01:07:39;;;;;;;9.13;2.35;;;21.30;99.90;;;;;;5036447;28;20124;-68
2022/08/03 01:10:35;;;;;;;7.25;2.28;;;21.30;99.90;;;;;;5036679;28;20042;-68
2022/08/03 01:13:40;;;;;;;8.20;2.63;;;21.40;99.90;;;;;;5035747;28;20148;-68
2022/08/03 01:16:14;;;;;;;11.93;2.55;;;21.40;99.90;;;;;;5035521;28;20053;-68
2022/08/03 01:19:11;;;;;;;9.35;3.25;;;21.40;99.90;;;;;;5036592;28;20045;-68
2022/08/03 01:21:46;;;;;;;;;;;21.40;99.90;;;;;;5035981;28;20041;-69
2022/08/03 01:24:36;;;;;;;7.63;2.17;;;21.40;99.90;;;;;;5036252;28;20019;-69
2022/08/03 01:27:08;;;;;;;7.10;2.58;;;21.40;99.90;;;;;;5036511;28;20041;-68
2022/08/03 01:29:57;;;;;;;6.97;2.15;;;21.50;99.90;;;;;;5036324;28;20037;-69
2022/08/03 01:32:34;;;;;;;4.88;2.40;;;21.50;99.90;;;;;;5036108;28;20434;-69
2022/08/03 01:35:12;;;;;;;7.68;2.20;;;21.50;99.90;;;;;;5036499;28;20033;-69
2022/08/03 01:37:46;;;;;;;5.47;2.40;;;21.50;99.90;;;;;;5036292;28;20041;-69
2022/08/03 01:40:14;;;;;;;10.48;2.00;;;21.50;99.90;;;;;;5036068;28;20095;-69
2022/08/03 01:42:41;;;;;;;6.75;2.05;;;21.40;99.90;;;;;;5035967;28;20049;-69
2022/08/03 01:45:11;;;;;;;6.05;2.10;;;21.40;99.90;;;;;;5036157;28;20041;-69
2022/08/03 01:47:38;;;;;;;5.65;1.77;;;21.40;99.90;;;;;;5036069;28;20041;-69
2022/08/03 01:50:05;;;;;;;6.70;1.90;;;21.30;99.90;;;;;;5034818;28;20103;-69
2022/08/03 01:52:32;;;;;;;9.45;2.13;;;21.30;99.90;;;;;;5035044;28;20037;-69
2022/08/03 01:54:59;;;;;;;9.13;1.90;;;21.30;99.90;;;;;;5035844;28;20037;-69
2022/08/03 01:57:27;;;;;;;7.57;2.33;;;21.30;99.90;;;;;;5036069;28;20037;-69
2022/08/03 01:59:56;;;;;;;8.43;1.80;;;21.30;99.90;;;;;;5034732;28;20045;-69
2022/08/03 02:02:23;;;;;;;9.32;1.73;;;21.30;99.90;;;;;;5035704;28;20053;-69
2022/08/03 02:04:51;;;;;;;8.73;1.50;;;21.30;99.90;;;;;;5035122;28;20124;-69
2022/08/03 02:07:18;;;;;;;5.80;1.40;;;21.30;99.90;;;;;;5034854;28;20095;-69
2022/08/03 02:09:48;;;;;;;8.35;2.15;;;21.30;99.90;;;;;;5035986;28;20064;-69
2022/08/03 02:12:15;;;;;;;7.30;2.00;;;21.30;99.90;;;;;;5034598;28;20033;-69
2022/08/03 02:14:43;;;;;;;11.13;2.15;;;21.30;99.90;;;;;;5035863;28;20113;-70
2022/08/03 02:17:09;;;;;;;9.05;1.90;;;21.30;99.90;;;;;;5035710;28;20334;-69
2022/08/03 02:19:36;;;;;;;6.55;1.38;;;21.30;99.90;;;;;;5036026;28;20319;-69
2022/08/03 02:22:04;;;;;;;6.85;1.67;;;21.30;99.90;;;;;;5035611;28;20419;-70
2022/08/03 02:24:30;;;;;;;4.95;1.40;;;21.20;99.90;;;;;;5038248;28;20170;-69
2022/08/03 02:26:57;;;;;;;6.28;1.70;;;21.20;99.90;;;;;;5040021;28;20093;-69
2022/08/03 02:29:25;;;;;;;6.38;2.05;;;21.10;99.90;;;;;;5039857;28;20119;-69
2022/08/03 02:31:54;;;;;;;6.13;1.50;;;21.10;99.90;;;;;;5039530;28;20041;-69
2022/08/03 02:34:22;;;;;;;4.70;1.88;;;21.10;99.90;;;;;;5039647;28;20048;-69
2022/08/03 02:36:50;;;;;;;12.13;2.25;;;21.10;99.90;;;;;;5039756;28;20044;-69
2022/08/03 02:39:19;;;;;;;8.18;1.52;;;21.00;99.90;;;;;;5039564;28;20045;-70
2022/08/03 02:41:49;;;;;;;8.38;1.58;;;21.00;99.90;;;;;;5039512;28;20044;-69
2022/08/03 02:44:19;;;;;;;7.68;1.58;;;21.00;99.90;;;;;;5039305;28;20042;-69
2022/08/03 02:46:48;;;;;;;9.13;2.30;;;20.90;99.90;;;;;;5038068;28;20052;-69
2022/08/03 02:49:17;;;;;;;6.72;1.77;;;20.90;99.90;;;;;;5038212;28;20385;-72
2022/08/03 02:51:46;;;;;;;8.68;1.92;;;20.80;99.90;;;;;;5039321;28;20033;-69
2022/08/03 02:54:16;;;;;;;6.45;1.70;;;20.90;99.90;;;;;;5039299;28;20041;-69
2022/08/03 02:56:44;;;;;;;7.68;2.00;;;20.80;99.90;;;;;;5039406;28;20426;-69
2022/08/03 02:59:11;;;;;;;6.68;1.60;;;20.80;99.90;;;;;;5039377;28;20041;-69
2022/08/03 03:01:38;;;;;;;6.50;1.70;;;20.90;99.90;;;;;;5038663;28;20057;-69
2022/08/03 03:04:04;;;;;;;4.53;1.50;;;20.90;99.90;;;;;;5038084;28;20037;-69
2022/08/03 03:06:31;;;;;;;8.60;1.65;;;20.90;99.90;;;;;;5039224;28;20116;-69
2022/08/03 03:08:57;;;;;;;11.40;2.05;;;21.00;99.90;;;;;;5038971;28;20422;-69
2022/08/03 03:11:24;;;;;;;11.90;2.08;;;21.00;99.90;;;;;;5039322;28;20045;-70
2022/08/03 03:13:51;;;;;;;6.85;1.85;;;21.00;99.90;;;;;;5038008;28;20405;-69
2022/08/03 03:16:18;;;;;;;7.40;1.90;;;21.00;99.90;;;;;;5039010;28;20430;-70
2022/08/03 03:18:45;;;;;;;7.63;1.70;;;21.00;99.90;;;;;;5038725;28;20434;-70
2022/08/03 03:21:13;;;;;;;6.32;1.90;;;21.00;99.90;;;;;;5039128;28;20045;-74
2022/08/03 03:23:40;;;;;;;8.75;2.10;;;20.90;99.90;;;;;;5038126;28;20037;-69
2022/08/03 03:26:07;;;;;;;7.82;1.80;;;20.90;99.90;;;;;;5038734;28;20040;-70
2022/08/03 03:28:35;;;;;;;8.23;1.70;;;20.90;99.90;;;;;;5038974;28;20048;-69
2022/08/03 03:31:02;;;;;;;6.85;1.67;;;20.90;99.90;;;;;;5038320;28;20044;-70
2022/08/03 03:33:28;;;;;;;11.43;2.08;;;20.90;99.90;;;;;;5038641;28;20430;-69
2022/08/03 03:35:56;;;;;;;5.38;1.50;;;20.90;99.90;;;;;;5037559;28;20146;-69
2022/08/03 03:38:22;;;;;;;7.40;1.70;;;20.80;99.90;;;;;;5038211;28;20041;-70
2022/08/03 03:40:48;;;;;;;9.07;2.25;;;20.90;99.90;;;;;;5038141;28;20179;-70
2022/08/03 03:43:14;;;;;;;10.15;1.90;;;20.80;99.90;;;;;;5038309;28;20115;-69
2022/08/03 03:45:41;;;;;;;6.22;2.05;;;20.80;99.90;;;;;;5038272;28;20053;-69
2022/08/03 03:48:07;;;;;;;8.23;1.73;;;20.90;99.90;;;;;;5038460;28;20045;-69
2022/08/03 03:50:34;;;;;;;7.70;2.38;;;20.90;99.90;;;;;;5038446;28;20100;-69
2022/08/03 03:53:03;;;;;;;4.75;1.90;;;20.90;99.90;;;;;;5038337;28;20049;-69
2022/08/03 03:55:29;;;;;;;11.25;2.22;;;20.90;99.90;;;;;;5038491;28;20041;-69
2022/08/03 03:57:56;;;;;;;10.00;2.55;;;20.80;99.90;;;;;;5038087;28;20044;-69
2022/08/03 04:00:22;;;;;;;11.73;2.13;;;20.80;99.90;;;;;;5037741;28;20331;-70
2022/08/03 04:02:49;;;;;;;10.18;2.40;;;20.80;99.90;;;;;;5038031;28;20080;-69
2022/08/03 04:11:32;;;;;;;11.15;2.80;;;20.80;99.90;;;;;;5037750;28;20111;-69
2022/08/03 04:14:34;;;;;;;4.78;1.98;;;20.90;99.90;;;;;;5037460;28;20041;-69
2022/08/03 04:17:06;;;;;;;11.00;2.50;;;20.80;99.90;;;;;;5015924;28;20100;-70
2022/08/03 04:19:37;;;;;;;7.45;2.00;;;20.80;99.90;;;;;;5034209;28;20088;-69
2022/08/03 04:22:09;;;;;;;6.30;1.95;;;20.80;99.90;;;;;;5037330;28;20410;-74
2022/08/03 04:24:43;;;;;;;5.60;2.10;;;20.80;99.90;;;;;;5037333;28;20167;-69
2022/08/03 04:27:12;;;;;;;11.77;2.03;;;20.80;99.90;;;;;;5037612;28;20045;-69
2022/08/03 04:29:41;;;;;;;12.35;2.78;;;20.80;99.90;;;;;;5037434;28;20034;-69
2022/08/03 04:32:09;;;;;;;11.35;2.53;;;20.80;99.90;;;;;;5036864;28;20423;-69
2022/08/03 04:34:34;;;;;;;9.93;2.35;;;20.80;99.90;;;;;;5037469;28;20323;-69
2022/08/03 04:37:04;;;;;;;7.07;2.70;;;20.80;99.90;;;;;;5037082;28;20041;-69
2022/08/03 04:39:31;;;;;;;6.35;2.78;;;20.80;99.90;;;;;;5037001;28;20635;-70
2022/08/03 04:42:01;;;;;;;10.27;3.25;;;20.90;99.90;;;;;;5036892;28;20045;-69
2022/08/03 04:44:30;;;;;;;5.95;2.33;;;21.00;99.90;;;;;;5036867;28;20045;-69
2022/08/03 04:46:57;;;;;;;5.32;2.60;;;21.00;99.90;;;;;;5037143;28;20191;-70
2022/08/03 04:49:23;;;;;;;8.20;2.42;;;21.10;99.90;;;;;;5036949;28;20041;-69
2022/08/03 04:51:49;;;;;;;7.85;2.58;;;21.10;99.90;;;;;;5037136;28;20422;-69
2022/08/03 04:54:15;;;;;;;8.55;2.35;;;21.10;99.90;;;;;;5035858;28;20030;-69
2022/08/03 04:56:42;;;;;;;10.98;3.15;;;21.10;99.90;;;;;;5036956;28;20484;-70
2022/08/03 04:59:09;;;;;;;6.50;3.03;;;21.20;99.90;;;;;;5035815;28;20437;-69
2022/08/03 05:01:35;;;;;;;12.55;2.90;;;21.20;99.90;;;;;;5036236;28;20053;-70
2022/08/03 05:04:01;;;;;;;11.88;2.78;;;21.20;99.90;;;;;;5037241;28;20047;-69
2022/08/03 05:06:27;;;;;;;12.90;3.10;;;21.30;99.90;;;;;;5035798;28;20402;-70
2022/08/03 05:08:52;;;;;;;10.40;2.13;;;21.30;99.90;;;;;;5036941;28;20033;-69
2022/08/03 05:11:18;;;;;;;12.30;2.83;;;21.20;99.90;;;;;;5036737;28;20091;-69
2022/08/03 05:13:44;;;;;;;11.65;3.40;;;21.30;99.90;;;;;;5036881;28;20080;-69
2022/08/03 05:16:10;;;;;;;8.93;3.00;;;21.30;99.90;;;;;;5036673;28;20140;-70
2022/08/03 05:18:36;;;;;;;9.60;2.25;;;21.40;99.90;;;;;;5036813;28;20049;-69
2022/08/03 05:21:03;;;;;;;10.57;2.90;;;21.50;99.90;;;;;;5035564;28;20334;-69
2022/08/03 05:23:29;;;;;;;9.63;2.60;;;21.50;99.90;;;;;;5036773;28;20044;-69
2022/08/03 05:25:55;;;;;;;10.60;2.58;;;21.60;99.90;;;;;;5036334;28;20334;-70
2022/08/03 05:28:21;;;;;;;8.57;2.35;;;21.60;99.90;;;;;;5036770;28;20060;-69
2022/08/03 05:30:47;;;;;;;9.73;3.08;;;21.70;99.90;;;;;;5036130;28;20060;-69
2022/08/03 05:33:13;;;;;;;8.93;2.30;;;21.70;99.90;;;;;;5036524;28;20038;-69
2022/08/03 05:35:39;;;;;;;8.75;2.40;;;21.80;99.90;;;;;;5036574;28;20426;-69
2022/08/03 05:38:05;;;;;;;10.38;2.45;;;21.80;99.90;;;;;;5036477;28;20037;-69
2022/08/03 05:40:31;;;;;;;8.05;2.15;;;21.90;99.90;;;;;;5036454;28;20399;-69
2022/08/03 05:42:57;;;;;;;11.98;2.80;;;21.80;99.90;;;;;;5036591;28;20069;-69
2022/08/03 05:45:24;;;;;;;8.23;2.30;;;21.90;99.90;;;;;;5035950;28;20430;-69
2022/08/03 05:47:50;;;;;;;9.68;2.22;;;21.90;99.90;;;;;;5035990;28;20495;-69
2022/08/03 05:50:17;;;;;;;8.23;2.20;;;22.00;99.90;;;;;;5036278;28;20124;-69
2022/08/03 05:52:43;;;;;;;13.57;2.80;;;22.10;99.90;;;;;;5036005;28;20091;-69
2022/08/03 05:55:11;;;;;;;14.73;2.33;;;21.90;99.90;;;;;;5035996;28;20120;-69
2022/08/03 05:57:37;;;;;;;9.32;2.22;;;22.00;99.90;;;;;;5036183;28;20048;-69
2022/08/03 06:00:08;;;;;;;11.90;2.58;;;22.10;99.90;;;;;;5039514;28;20045;-69
2022/08/03 06:02:33;;;;;;;10.60;2.50;;;22.30;99.90;;;;;;5038854;28;20137;-69
2022/08/03 06:04:59;;;;;;;12.75;3.00;;;22.10;99.90;;;;;;5039807;28;20112;-69
2022/08/03 06:07:25;;;;;;;10.88;2.50;;;22.20;99.90;;;;;;5040071;28;20033;-69
2022/08/03 06:09:51;;;;;;;11.00;2.15;;;22.30;99.90;;;;;;5039823;28;20434;-69
2022/08/03 06:12:17;;;;;;;8.45;1.92;;;22.30;99.90;;;;;;5040028;28;20120;-69
2022/08/03 06:14:42;;;;;;;9.98;2.67;;;22.30;99.90;;;;;;5039848;28;20034;-69
2022/08/03 06:17:08;;;;;;;14.55;2.70;;;22.30;99.90;;;;;;5039735;28;20045;-69
2022/08/03 06:19:33;;;;;;;9.70;2.15;;;22.30;99.90;;;;;;5039765;28;20041;-69
2022/08/03 06:21:59;;;;;;;13.55;2.70;;;22.40;99.90;;;;;;5039566;28;20462;-70
2022/08/03 06:24:25;;;;;;;14.68;2.50;;;22.40;99.90;;;;;;5039493;28;20041;-69
2022/08/03 06:26:50;;;;;;;13.50;2.40;;;22.40;99.90;;;;;;5038756;28;20042;-70
2022/08/03 06:29:16;;;;;;;10.05;2.90;;;22.60;99.90;;;;;;5040145;28;20033;-69
2022/08/03 06:31:42;;;;;;;10.75;2.40;;;22.60;99.90;;;;;;5039560;28;20044;-69
2022/08/03 06:34:07;;;;;;;9.98;2.53;;;22.60;99.90;;;;;;5039776;28;20381;-70
2022/08/03 06:36:33;;;;;;;11.90;2.65;;;22.60;99.90;;;;;;5039835;28;20331;-70
2022/08/03 06:38:59;;;;;;;10.88;2.63;;;22.80;99.90;;;;;;5038988;28;20045;-70
2022/08/03 06:41:26;;;;;;;12.88;2.70;;;23.00;99.90;;;;;;5039727;28;20041;-69
2022/08/03 06:43:53;;;;;;;14.07;2.72;;;23.00;99.90;;;;;;5039864;28;20069;-71
2022/08/03 06:46:19;;;;;;;14.98;2.75;;;23.00;99.90;;;;;;5039369;28;20076;-70
2022/08/03 06:48:45;;;;;;;14.02;2.70;;;22.90;99.90;;;;;;5039531;28;20362;-70
2022/08/03 06:51:10;;;;;;;10.98;3.20;;;22.90;99.90;;;;;;5039347;28;20041;-70
2022/08/03 06:53:36;;;;;;;11.68;2.97;;;22.90;99.90;;;;;;5039293;28;20037;-69
2022/08/03 06:56:04;;;;;;;8.38;2.58;;;22.80;99.90;;;;;;5039258;28;20426;-69
2022/08/03 06:58:29;;;;;;;15.43;2.97;;;22.90;99.90;;;;;;5038937;28;20042;-69
2022/08/03 07:00:55;;;;;;;12.52;2.75;;;23.10;99.90;;;;;;5038367;28;20049;-69
2022/08/03 07:03:21;;;;;;;12.43;2.72;;;23.10;99.90;;;;;;5039196;28;20041;-69
2022/08/03 07:05:46;;;;;;;11.35;2.85;;;23.40;99.90;;;;;;5038666;28;20045;-71
2022/08/03 07:08:16;;;;;;;13.38;2.70;;;23.40;99.90;;;;;;5038712;28;20037;-69
2022/08/03 07:10:42;;;;;;;13.52;2.80;;;23.40;99.90;;;;;;5037480;28;20045;-69
2022/08/03 07:13:08;;;;;;;11.07;2.88;;;23.40;99.90;;;;;;5038870;28;20041;-69
2022/08/03 07:15:34;;;;;;;11.43;2.88;;;23.50;99.90;;;;;;5038653;28;20037;-75
2022/08/03 07:17:59;;;;;;;15.18;2.95;;;23.60;99.90;;;;;;5038922;28;20045;-68
2022/08/03 07:20:25;;;;;;;11.90;2.70;;;23.70;99.90;;;;;;5038554;28;20316;-68
2022/08/03 07:22:51;;;;;;;10.77;3.13;;;23.90;99.90;;;;;;5038571;28;20041;-68
2022/08/03 07:25:17;;;;;;;11.43;2.75;;;23.90;99.90;;;;;;5037251;28;20049;-69
2022/08/03 07:27:43;;;;;;;13.95;2.85;;;24.00;99.90;;;;;;5038729;28;20044;-71
2022/08/03 07:30:10;;;;;;;14.48;2.78;;;24.00;99.90;;;;;;5037582;28;20041;-69
2022/08/03 07:32:36;;;;;;;14.55;2.83;;;24.20;99.90;;;;;;5037979;28;20115;-69
2022/08/03 07:35:03;;;;;;;7.80;2.28;;;24.20;99.90;;;;;;5038610;28;20422;-70
2022/08/03 07:37:29;;;;;;;13.32;2.88;;;24.20;99.90;;;;;;5038250;28;20051;-71
2022/08/03 07:39:55;;;;;;;17.65;3.10;;;24.30;99.90;;;;;;5038582;28;20331;-71
2022/08/03 07:42:22;;;;;;;11.02;2.50;;;24.30;99.90;;;;;;5038186;28;20048;-72
2022/08/03 07:44:48;;;;;;;11.02;2.67;;;24.40;99.90;;;;;;5038410;28;20099;-69
2022/08/03 07:47:18;;;;;;;13.98;2.90;;;24.30;99.90;;;;;;5037033;28;20041;-70
2022/08/03 07:49:44;;;;;;;14.13;2.92;;;24.30;99.90;;;;;;5038059;28;20065;-71
2022/08/03 07:54:54;;;;;;;13.60;2.92;;;24.50;99.90;;;;;;5038241;28;20095;-71
2022/08/03 07:57:20;;;;;;;13.55;3.25;;;24.60;99.90;;;;;;5037347;28;20135;-71
2022/08/03 07:59:46;;;;;;;14.38;2.97;;;24.50;99.90;;;;;;5037906;28;20041;-71
2022/08/03 08:02:13;;;;;;;12.73;2.83;;;24.40;99.90;;;;;;5037243;28;20435;-70
2022/08/03 08:04:39;;;;;;;13.57;3.13;;;24.50;99.90;;;;;;5037948;28;20053;-72
2022/08/03 08:07:04;;;;;;;11.70;2.80;;;24.60;99.90;;;;;;5036664;28;20041;-71
2022/08/03 08:09:30;;;;;;;15.70;3.00;;;24.80;99.90;;;;;;5020169;28;20055;-71
2022/08/03 08:11:56;;;;;;;14.27;3.20;;;25.00;99.90;;;;;;5036786;28;20071;-71
2022/08/03 08:14:21;;;;;;;11.68;2.72;;;24.70;99.90;;;;;;5037610;28;20096;-71
2022/08/03 08:16:48;;;;;;;8.35;2.40;;;24.80;99.90;;;;;;5036762;28;20346;-71
2022/08/03 08:19:15;;;;;;;14.57;2.92;;;24.90;99.90;;;;;;5037139;28;20159;-71
2022/08/03 08:21:42;;;;;;;15.85;2.85;;;25.10;99.90;;;;;;5037555;28;20045;-71
2022/08/03 08:24:07;;;;;;;15.63;2.70;;;25.10;99.90;;;;;;5037965;28;20048;-71
2022/08/03 08:26:33;;;;;;;13.23;2.80;;;25.00;99.90;;;;;;5036540;28;20041;-71
2022/08/03 08:28:59;;;;;;;10.68;2.92;;;25.00;99.90;;;;;;5037574;28;20410;-71
2022/08/03 08:31:25;;;;;;;12.80;2.88;;;25.00;99.90;;;;;;5037060;28;20083;-70
2022/08/03 08:33:50;;;;;;;10.32;2.63;;;25.10;99.90;;;;;;5037634;28;20076;-73
2022/08/03 08:36:16;;;;;;;8.55;3.05;;;25.20;99.90;;;;;;5037729;28;20037;-69
2022/08/03 08:38:43;;;;;;;13.07;3.13;;;25.50;99.90;;;;;;5036495;28;20388;-70
2022/08/03 08:41:10;;;;;;;11.70;2.70;;;25.60;99.90;;;;;;5037553;28;20084;-69
2022/08/03 08:43:36;;;;;;;17.50;3.10;;;25.80;99.90;;;;;;5036469;28;20243;-71
2022/08/03 08:46:02;;;;;;;11.93;3.42;;;25.90;99.90;;;;;;5037258;28;20484;-71
2022/08/03 08:48:29;;;;;;;12.43;2.97;;;25.90;99.90;;;;;;5037485;28;20047;-71
2022/08/03 08:50:56;;;;;;;13.68;2.83;;;25.80;99.90;;;;;;5037339;28;20092;-70
2022/08/03 08:53:25;;;;;;;14.95;3.03;;;25.90;99.90;;;;;;5036245;28;20430;-70
2022/08/03 08:55:53;;;;;;;10.27;2.50;;;25.90;99.90;;;;;;5036313;28;20392;-70
2022/08/03 08:58:22;;;;;;;13.57;3.10;;;26.00;99.90;;;;;;5037096;28;20101;-70
2022/08/03 09:00:49;;;;;;;10.57;2.88;;;26.10;99.90;;;;;;5036265;28;20061;-70
2022/08/03 09:03:16;;;;;;;9.45;3.17;;;26.10;99.90;;;;;;5019559;28;20041;-70
2022/08/03 09:05:43;;;;;;;13.10;2.88;;;26.00;99.90;;;;;;5037083;28;20052;-70
2022/08/03 09:08:09;;;;;;;10.05;3.03;;;26.10;99.90;;;;;;5036995;28;20077;-70
2022/08/03 09:10:35;;;;;;;16.77;2.53;;;26.20;99.90;;;;;;5036836;28;20091;-71
2022/08/03 09:13:00;;;;;;;13.48;3.08;;;26.40;99.90;;;;;;5036716;28;20048;-71
2022/08/03 09:15:31;;;;;;;9.60;2.70;;;26.20;99.90;;;;;;5036674;28;20438;-68
2022/08/03 09:17:59;;;;;;;9.65;2.65;;;26.10;99.90;;;;;;5036776;28;20044;-68
2022/08/03 09:20:28;;;;;;;8.43;2.70;;;26.10;99.90;;;;;;5035882;28;20113;-68
2022/08/03 09:23:07;;;;;;;11.13;3.25;;;26.10;99.90;;;;;;5036650;28;20045;-68
2022/08/03 09:25:38;;;;;;;8.65;2.78;;;26.20;99.90;;;;;;5035616;28;20081;-71
2022/08/03 09:28:12;;;;;;;9.32;2.70;;;26.30;99.90;;;;;;5035680;28;20041;-71
2022/08/03 09:30:41;;;;;;;9.57;2.72;;;26.40;99.90;;;;;;5036560;28;20041;-71
2022/08/03 09:33:12;;;;;;;12.32;2.88;;;26.50;99.90;;;;;;5035222;28;20038;-71
2022/08/03 09:35:46;;;;;;;7.57;2.88;;;26.70;99.90;;;;;;5036463;28;20041;-70
2022/08/03 09:38:15;;;;;;;12.68;3.40;;;26.60;99.90;;;;;;5036495;28;20352;-70
2022/08/03 09:40:42;;;;;;;11.00;2.63;;;26.80;99.90;;;;;;5035674;28;20430;-69
2022/08/03 09:43:09;;;;;;;15.15;3.00;;;26.80;99.90;;;;;;5036216;28;20327;-69
2022/08/03 09:45:36;;;;;;;17.58;3.05;;;27.00;99.90;;;;;;5035561;28;20060;-70
2022/08/03 09:48:24;;;;;;;9.35;2.72;;;27.20;99.90;;;;;;5035426;28;20049;-70
2022/08/03 09:50:51;;;;;;;17.58;3.13;;;27.50;99.90;;;;;;5036302;28;20481;-70
2022/08/03 09:53:18;;;;;;;12.05;3.00;;;27.60;99.90;;;;;;5036510;28;20040;-70
2022/08/03 09:55:58;;;;;;;15.82;3.05;;;27.40;99.90;;;;;;5036329;28;20092;-68
2022/08/03 09:58:27;;;;;;;8.27;3.00;;;27.50;99.90;;;;;;5036708;28;20064;-89
2022/08/03 10:01:02;;;;;;;10.98;3.35;;;27.40;99.90;;;;;;5036002;28;20050;-90
2022/08/03 10:03:29;;;;;;;11.32;2.75;;;27.00;99.90;;;;;;5036602;28;20049;-88
2022/08/03 10:05:55;;;;;;;15.75;3.10;;;26.60;99.90;;;;;;5035556;28;20142;-88
2022/08/03 10:08:22;;;;;;;11.00;3.17;;;26.40;99.90;;;;;;5035376;28;20077;-86
2022/08/03 10:10:49;;;;;;;13.73;3.35;;;26.50;99.90;;;;;;5002608;28;20045;-87
2022/08/03 10:13:17;;;;;;;12.57;2.90;;;26.60;99.90;;;;;;5036310;28;20034;-87
2022/08/03 10:15:44;;;;;;;9.77;2.70;;;26.80;99.90;;;;;;5035612;28;20049;-87
2022/08/03 10:18:09;;;;;;;18.92;3.08;;;26.90;99.90;;;;;;5035824;28;20041;-89
2022/08/03 10:21:07;;;;;;;9.68;2.20;;;27.00;99.90;;;;;;5036770;28;20044;-91
2022/08/03 10:23:38;;;;;;;14.00;2.50;;;27.10;99.90;;;;;;5027203;28;20112;-68
2022/08/03 10:26:06;;;;;;;10.02;3.03;;;27.40;99.90;;;;;;5035804;28;20068;-68
2022/08/03 10:28:40;;;;;;;9.70;2.35;;;27.90;99.90;;;;;;5035058;28;20037;-67
2022/08/03 10:31:08;;;;;;;13.30;2.60;;;28.20;99.90;;;;;;5035768;28;20085;-85
2022/08/03 10:33:38;;;;;;;11.35;2.40;;;28.60;99.90;;;;;;5018714;28;20045;-69
2022/08/03 10:36:06;;;;;;;14.13;2.30;;;28.20;99.90;;;;;;5035148;28;20064;-69
2022/08/03 10:38:37;;;;;;;11.00;2.50;;;28.30;99.90;;;;;;5035957;28;20438;-70
2022/08/03 10:41:05;;;;;;;11.55;2.65;;;28.70;99.90;;;;;;5034863;28;20049;-69
2022/08/03 10:43:52;;;;;;;12.18;2.47;;;28.90;99.90;;;;;;5036075;28;20338;-69
2022/08/03 10:46:20;;;;;;;7.53;1.83;;;29.10;99.90;;;;;;5039452;28;20063;-69
2022/08/03 10:48:47;;;;;;;9.52;2.30;;;29.30;99.90;;;;;;5039317;28;20041;-69
2022/08/03 10:51:13;;;;;;;8.50;1.90;;;29.50;99.90;;;;;;5038392;28;20052;-69
2022/08/03 10:53:43;;;;;;;8.40;2.30;;;29.70;99.90;;;;;;5039401;28;20034;-68
2022/08/03 10:59:15;;;;;;;12.35;2.33;;;30.10;99.90;;;;;;5039395;28;20211;-67
2022/08/03 11:01:55;;;;;;;10.52;2.35;;;30.20;99.90;;;;;;5038494;28;20350;-69
2022/08/03 11:04:23;;;;;;;11.43;2.75;;;30.40;99.90;;;;;;5039433;28;20053;-69
2022/08/03 11:07:22;;;;;;;12.80;2.72;;;30.60;99.90;;;;;;5039056;28;20052;-68
2022/08/03 11:09:52;;;;;;;10.20;2.30;;;30.80;99.90;;;;;;5039029;28;20048;-69
2022/08/03 11:12:32;;;;;;;14.48;3.25;;;30.80;99.90;;;;;;5039357;28;20041;-69
2022/08/03 11:15:04;;;;;;;9.90;2.60;;;31.20;99.90;;;;;;5039099;28;20044;-69
2022/08/03 11:17:31;;;;;;;15.75;3.30;;;31.00;99.90;;;;;;5039288;28;20041;-70
2022/08/03 11:19:57;;;;;;;17.33;2.90;;;30.90;99.90;;;;;;5038976;28;20034;-68
2022/08/03 11:22:23;;;;;;;17.27;2.90;;;31.00;99.90;;;;;;5038777;28;20037;-69
2022/08/03 11:24:56;;;;;;;14.25;2.63;;;31.20;99.90;;;;;;5038742;28;20385;-69
2022/08/03 11:27:32;;;;;;;14.27;3.30;;;31.30;99.90;;;;;;5038781;28;20125;-69
2022/08/03 11:30:24;;;;;;;16.15;3.35;;;31.30;99.90;;;;;;5038117;28;20418;-69
2022/08/03 11:32:51;;;;;;;15.48;2.95;;;31.40;99.90;;;;;;5038476;28;20044;-68
2022/08/03 11:36:01;;;;;;;10.45;2.97;;;31.10;99.90;;;;;;5037559;28;20411;-70
2022/08/03 11:38:27;;;;;;;21.55;3.83;;;31.10;99.90;;;;;;5038887;28;20445;-68
2022/08/03 11:40:53;;;;;;;18.90;3.35;;;30.70;99.90;;;;;;5038534;28;20034;-71
2022/08/03 11:43:33;;;;;;;16.65;3.10;;;30.50;99.90;;;;;;5038485;28;20338;-67
2022/08/03 11:46:00;;;;;;;12.88;3.10;;;30.70;99.90;;;;;;5038322;28;20453;-70
2022/08/03 11:48:43;;;;;;;14.75;2.83;;;30.90;99.90;;;;;;5038548;28;20354;-71
2022/08/03 11:51:30;;;;;;;15.52;3.20;;;31.10;99.90;;;;;;5038374;28;20434;-71
2022/08/03 11:53:57;;;;;;;13.00;2.80;;;31.10;99.90;;;;;;5038246;28;20095;-68
2022/08/03 11:56:23;;;;;;;15.23;3.10;;;31.20;99.90;;;;;;5037915;28;20044;-69
2022/08/03 11:58:52;;;;;;;11.77;3.20;;;31.20;99.90;;;;;;5038190;28;20045;-69
2022/08/03 12:01:19;;;;;;;18.80;3.42;;;31.60;99.90;;;;;;5037752;28;20064;-69
2022/08/03 12:03:45;;;;;;;17.27;3.50;;;31.70;99.90;;;;;;5038083;28;20124;-69
2022/08/03 12:06:13;;;;;;;18.45;3.05;;;31.40;99.90;;;;;;5038176;28;20128;-69
2022/08/03 12:08:40;;;;;;;15.55;4.05;;;31.70;99.90;;;;;;5037855;28;20414;-69
2022/08/03 12:11:08;;;;;;;18.65;3.58;;;31.80;99.90;;;;;;5038166;28;20033;-69
2022/08/03 12:13:45;;;;;;;14.77;3.13;;;32.20;99.90;;;;;;5038161;28;20040;-69
2022/08/03 12:16:22;;;;;;;15.07;2.95;;;32.50;99.90;;;;;;5037894;28;20048;-69
2022/08/03 12:19:03;;;;;;;14.25;3.40;;;32.80;99.90;;;;;;5038126;28;20038;-69
2022/08/03 12:21:30;;;;;;;17.20;3.42;;;32.40;99.90;;;;;;5037904;28;20041;-69
2022/08/03 12:23:58;;;;;;;20.20;3.50;;;32.20;99.90;;;;;;5037726;28;20033;-69
2022/08/03 12:26:25;;;;;;;15.63;2.95;;;31.80;99.90;;;;;;5037636;28;20103;-70
2022/08/03 12:28:51;;;;;;;11.50;3.03;;;31.70;99.90;;;;;;5037790;28;20034;-69
2022/08/03 12:31:16;;;;;;;18.27;3.03;;;32.30;99.90;;;;;;5037163;28;20541;-70
2022/08/03 12:34:01;;;;;;;20.00;3.15;;;32.70;99.90;;;;;;5037761;28;20065;-69
2022/08/03 12:36:29;;;;;;;19.17;3.30;;;33.10;99.90;;;;;;5036694;28;20044;-69
2022/08/03 12:39:02;;;;;;;18.85;3.35;;;33.50;99.90;;;;;;5037395;28;20493;-69
2022/08/03 12:41:30;;;;;;;15.60;3.10;;;32.80;99.90;;;;;;5037580;28;20052;-69
2022/08/03 12:43:56;;;;;;;14.93;2.80;;;32.00;99.90;;;;;;5037568;28;20046;-69
2022/08/03 12:46:27;;;;;;;17.25;2.90;;;32.50;99.90;;;;;;5037300;28;20048;-69
2022/08/03 12:48:58;;;;;;;13.60;3.08;;;32.70;99.90;;;;;;5036301;28;20041;-69
2022/08/03 12:51:26;;;;;;;16.25;3.80;;;33.00;99.90;;;;;;5037244;28;20323;-69
2022/08/03 12:53:53;;;;;;;22.50;3.33;;;32.90;99.90;;;;;;5037198;28;20099;-69
2022/08/03 12:56:19;;;;;;;14.85;3.35;;;32.40;99.90;;;;;;5036204;28;20396;-69
2022/08/03 12:58:46;;;;;;;15.70;2.80;;;32.50;99.90;;;;;;5036996;28;20342;-69
2022/08/03 13:01:12;;;;;;;11.85;2.85;;;33.00;99.90;;;;;;5036628;28;20092;-69